Time;durP1;ratioP1;P1;durP2;ratioP2;P2;SDS_P1;SDS_P2;PMS_P1;PMS_P2;Temp;Humidity;BMP_temperature;BMP_pressure;BME280_temperature;BME280_humidity;BME280_pressure;Samples;Min_cycle;Max_cycle;Signal;HPM_P1;HPM_P2
2022/05/18 00:00:27;;;;;;;0.65;0.65;;;;;;;-149.78;100.00;50207.44;5119245;27;20083;-73
2022/05/18 00:02:59;;;;;;;3.90;0.82;;;;;;;-149.78;100.00;50207.44;5137568;27;20119;-74
2022/05/18 00:05:25;;;;;;;1.52;0.80;;;;;;;-149.78;100.00;50197.66;5119380;27;20663;-73
2022/05/18 00:07:51;;;;;;;1.60;0.80;;;;;;;-149.78;100.00;50185.91;5119407;27;20039;-74
2022/05/18 00:10:18;;;;;;;2.08;0.80;;;;;;;-149.78;100.00;50183.97;5101899;27;20031;-73
2022/05/18 00:12:46;;;;;;;3.35;0.88;;;;;;;-149.78;100.00;50170.25;5119252;27;20070;-74
2022/05/18 00:15:14;;;;;;;0.65;0.63;;;;;;;-149.78;100.00;50209.38;5137247;27;20031;-73
2022/05/18 00:17:40;;;;;;;0.70;0.70;;;;;;;-149.78;100.00;50223.06;5119249;27;20034;-73
2022/05/18 00:20:09;;;;;;;2.60;0.88;;;;;;;-149.78;100.00;50197.66;5119123;27;20031;-73
2022/05/18 00:22:44;;;;;;;2.08;0.70;;;;;;;-149.78;100.00;50215.25;5137353;27;20030;-73
2022/05/18 00:25:09;;;;;;;3.03;0.80;;;;;;;-149.78;100.00;50193.72;5136791;27;20023;-73
2022/05/18 00:27:35;;;;;;;1.58;0.70;;;;;;;-149.78;100.00;50199.59;5101621;27;20034;-73
2022/05/18 00:30:01;;;;;;;2.65;0.80;;;;;;;-149.78;100.00;50205.47;5101540;27;20038;-73
2022/05/18 00:32:26;;;;;;;1.77;0.60;;;;;;;-149.78;100.00;50236.75;5068225;27;20060;-73
2022/05/18 00:34:52;;;;;;;3.97;0.73;;;;;;;-149.78;100.00;50185.91;5118664;27;20419;-73
2022/05/18 00:37:17;;;;;;;0.88;0.80;;;;;;;-149.78;100.00;50209.38;5136812;27;20065;-73
2022/05/18 00:39:43;;;;;;;2.35;0.80;;;;;;;-149.78;100.00;50240.66;5118833;27;20058;-73
2022/05/18 00:42:20;;;;;;;1.63;0.65;;;;;;;-149.78;100.00;50187.88;5118228;27;20035;-74
2022/05/18 00:44:46;;;;;;;1.10;0.80;;;;;;;-149.78;100.00;50234.81;5136813;27;20023;-73
2022/05/18 00:47:13;;;;;;;3.28;0.82;;;;;;;-149.78;100.00;50217.19;5118537;27;20023;-73
2022/05/18 00:49:41;;;;;;;2.58;0.80;;;;;;;-149.78;100.00;50201.56;5136775;27;20035;-73
2022/05/18 00:52:07;;;;;;;1.55;0.88;;;;;;;-149.78;100.00;50201.56;5101496;27;20061;-73
2022/05/18 00:54:35;;;;;;;2.55;0.75;;;;;;;-149.78;100.00;50236.75;5136308;27;20047;-73
2022/05/18 00:57:07;;;;;;;1.23;0.80;;;;;;;-149.78;100.00;50219.16;5118317;27;20510;-73
2022/05/18 00:59:54;;;;;;;0.85;0.80;;;;;;;-149.78;100.00;50201.56;5118069;27;20066;-73
2022/05/18 01:02:23;;;;;;;2.45;0.93;;;;;;;-149.78;100.00;50223.06;5135886;27;20027;-73
2022/05/18 01:04:54;;;;;;;1.23;1.02;;;;;;;-149.78;100.00;50223.06;5118109;27;20042;-74
2022/05/18 01:07:31;;;;;;;2.13;1.10;;;;;;;-149.78;100.00;50234.81;5110980;27;20032;-73
2022/05/18 01:09:58;;;;;;;2.40;0.80;;;;;;;-149.78;100.00;50209.38;5132891;27;20110;-73
2022/05/18 01:12:23;;;;;;;2.00;0.88;;;;;;;-149.78;100.00;50232.84;5117899;27;20042;-74
2022/05/18 01:14:52;;;;;;;1.17;0.70;;;;;;;-149.78;100.00;50232.84;5136088;27;20031;-74
2022/05/18 01:17:24;;;;;;;2.28;0.77;;;;;;;-149.78;100.00;50228.94;5135586;27;20030;-73
2022/05/18 01:19:52;;;;;;;6.63;1.20;;;;;;;-149.78;100.00;50228.94;5117899;27;20061;-74
2022/05/18 01:22:49;;;;;;;2.03;0.82;;;;;;;-149.78;100.00;50256.31;5100528;27;20030;-74
2022/05/18 01:25:24;;;;;;;1.58;0.82;;;;;;;-149.78;100.00;50205.47;5135889;27;20478;-74
2022/05/18 01:27:51;;;;;;;3.88;1.00;;;;;;;-149.78;100.00;50234.81;5135027;27;20064;-74
2022/05/18 01:30:16;;;;;;;0.93;0.80;;;;;;;-149.78;100.00;50225.03;5117066;27;20075;-73
2022/05/18 01:32:47;;;;;;;4.32;1.30;;;;;;;-149.78;100.00;50185.91;5109307;28;20035;-74
2022/05/18 01:35:19;;;;;;;1.25;0.77;;;;;;;-149.78;100.00;50221.13;5097117;28;20043;-73
2022/05/18 01:37:45;;;;;;;;;;;;;;;-149.78;100.00;50205.47;5097586;28;20035;-73
2022/05/18 01:40:29;;;;;;;2.00;0.88;;;;;;;-149.78;100.00;50262.19;5080377;28;19927;-74
2022/05/18 01:43:08;;;;;;;1.90;0.98;;;;;;;-149.78;100.00;50238.72;5128875;27;20083;-74
2022/05/18 01:45:34;;;;;;;3.65;0.85;;;;;;;-149.78;100.00;50232.84;5135724;27;20035;-73
2022/05/18 01:48:21;;;;;;;1.67;1.00;;;;;;;-149.78;100.00;50252.41;5100252;27;20038;-73
2022/05/18 01:50:47;;;;;;;3.00;1.00;;;;;;;-149.78;100.00;50252.41;5135307;27;20030;-73
2022/05/18 01:53:13;;;;;;;2.42;0.90;;;;;;;-149.78;100.00;50225.03;5134972;27;20374;-73
2022/05/18 01:55:39;;;;;;;3.15;1.10;;;;;;;-149.78;100.00;50264.13;5100198;27;20068;-74
2022/05/18 01:58:05;;;;;;;2.10;1.00;;;;;;;-149.78;100.00;50291.50;5083261;27;20036;-73
2022/05/18 02:00:32;;;;;;;2.60;1.02;;;;;;;-149.78;100.00;50236.75;5135338;27;20516;-73
2022/05/18 02:02:58;;;;;;;2.83;1.10;;;;;;;-149.78;100.00;50219.16;5117105;27;20069;-73
2022/05/18 02:05:24;;;;;;;1.92;0.80;;;;;;;-149.78;100.00;50201.56;5117268;27;20162;-73
2022/05/18 02:07:49;;;;;;;2.15;1.00;;;;;;;-149.78;100.00;50268.03;5100102;27;20150;-73
2022/05/18 02:10:15;;;;;;;2.80;0.95;;;;;;;-149.78;100.00;50252.41;5099879;27;20031;-73
2022/05/18 02:12:41;;;;;;;3.13;1.00;;;;;;;-149.78;100.00;50242.63;5099846;27;20167;-73
2022/05/18 02:15:07;;;;;;;3.03;1.00;;;;;;;-149.78;100.00;50256.31;5098935;27;20034;-73
2022/05/18 02:17:33;;;;;;;1.70;1.10;;;;;;;-149.78;100.00;50271.97;5099857;27;20035;-73
2022/05/18 02:19:59;;;;;;;4.30;1.13;;;;;;;-149.78;100.00;50228.94;5134783;27;20505;-73
2022/05/18 02:22:25;;;;;;;2.88;1.20;;;;;;;-149.78;100.00;50254.34;5099566;27;20031;-73
2022/05/18 02:24:51;;;;;;;1.52;1.10;;;;;;;-149.78;100.00;50268.03;5082580;27;20409;-73
2022/05/18 02:27:17;;;;;;;3.00;1.10;;;;;;;-149.78;100.00;50252.41;5116503;27;20037;-73
2022/05/18 02:29:43;;;;;;;4.07;1.25;;;;;;;-149.78;100.00;50297.38;5099799;27;20061;-73
2022/05/18 02:32:09;;;;;;;3.88;1.00;;;;;;;-149.78;100.00;50232.84;5116202;27;20430;-73
2022/05/18 02:34:35;;;;;;;1.98;1.05;;;;;;;-149.78;100.00;50248.50;5082786;27;20420;-73
2022/05/18 02:37:02;;;;;;;2.45;1.27;;;;;;;-149.78;100.00;50252.41;5134752;27;20121;-73
2022/05/18 02:39:27;;;;;;;6.47;1.10;;;;;;;-149.78;100.00;50240.66;5082597;27;20087;-73
2022/05/18 02:41:53;;;;;;;4.32;1.88;;;;;;;-149.78;100.00;50279.78;5134586;27;20028;-73
2022/05/18 02:44:19;;;;;;;3.70;1.90;;;;;;;-149.78;100.00;50244.59;5082850;27;20035;-73
2022/05/18 02:46:44;;;;;;;4.60;2.20;;;;;;;-149.78;100.00;50240.66;5134707;27;20465;-73
2022/05/18 02:49:11;;;;;;;6.55;2.38;;;;;;;-149.78;100.00;50295.44;5134290;27;20378;-73
2022/05/18 02:51:39;;;;;;;5.30;2.47;;;;;;;-149.78;100.00;50264.13;5099325;27;20398;-73
2022/05/18 02:56:05;;;;;;;5.10;2.45;;;;;;;-149.78;100.00;50256.31;5092029;28;20094;-74
2022/05/18 02:56:53;;;;;;;5.35;2.83;;;;;;;-149.78;100.00;50279.78;5098965;28;20031;-73
2022/05/18 02:59:20;;;;;;;5.32;2.92;;;;;;;-149.78;100.00;50283.69;5113625;28;20126;-73
2022/05/18 03:01:47;;;;;;;8.45;3.85;;;;;;;-149.78;100.00;50266.09;5131827;27;20386;-73
2022/05/18 03:04:13;;;;;;;4.85;2.70;;;;;;;-149.78;100.00;50248.50;5125653;27;20031;-73
2022/05/18 03:06:38;;;;;;;7.25;2.75;;;;;;;-149.78;100.00;50248.50;5115551;28;20046;-74
2022/05/18 03:09:05;;;;;;;5.10;2.95;;;;;;;-149.78;100.00;50256.31;5104041;28;20483;-73
2022/05/18 03:11:31;;;;;;;8.50;3.03;;;;;;;-149.78;100.00;50283.69;5134333;28;20031;-73
2022/05/18 03:13:56;;;;;;;5.80;2.67;;;;;;;-149.78;100.00;50262.19;5116163;28;20107;-74
2022/05/18 03:16:24;;;;;;;4.18;2.30;;;;;;;-149.78;100.00;50299.34;5134340;28;20458;-74
2022/05/18 03:18:50;;;;;;;5.88;2.20;;;;;;;-149.78;100.00;50275.88;5116221;28;20110;-73
2022/05/18 03:24:00;;;;;;;7.00;2.55;;;;;;;-149.78;100.00;50262.19;5134111;28;20039;-73
2022/05/18 03:26:26;;;;;;;8.77;2.40;;;;;;;-149.78;100.00;50307.16;5137421;27;20469;-73
2022/05/18 03:28:55;;;;;;;6.03;2.20;;;;;;;-149.78;100.00;50295.44;5102934;27;20538;-73
2022/05/18 03:31:21;;;;;;;5.75;1.92;;;;;;;-149.78;100.00;50295.44;5138196;27;20038;-73
2022/05/18 03:33:47;;;;;;;6.35;2.80;;;;;;;-149.78;100.00;50271.97;5138417;27;20027;-73
2022/05/18 03:36:15;;;;;;;6.18;2.00;;;;;;;-149.78;100.00;50238.72;5138105;27;20038;-73
2022/05/18 03:38:42;;;;;;;3.55;1.70;;;;;;;-149.78;100.00;50264.13;5138227;27;20053;-73
2022/05/18 03:41:09;;;;;;;4.65;1.98;;;;;;;-149.78;100.00;50268.03;5119588;27;20355;-73
2022/05/18 03:43:35;;;;;;;5.68;2.03;;;;;;;-149.78;100.00;50256.31;5119501;27;20432;-73
2022/05/18 03:46:01;;;;;;;7.95;2.13;;;;;;;-149.78;100.00;50291.50;5085818;27;20462;-73
2022/05/18 03:48:27;;;;;;;5.75;1.92;;;;;;;-149.78;100.00;50295.44;5138122;27;20110;-74
2022/05/18 03:50:54;;;;;;;8.13;2.20;;;;;;;-149.78;100.00;50301.28;5137845;27;20100;-73
2022/05/18 03:53:20;;;;;;;6.00;2.00;;;;;;;-149.78;100.00;50293.47;5119580;27;20373;-73
2022/05/18 03:55:46;;;;;;;9.18;2.25;;;;;;;-149.78;100.00;50256.31;5137584;27;20043;-73
2022/05/18 03:58:13;;;;;;;10.50;2.00;;;;;;;-149.78;100.00;50291.50;5137766;27;20427;-73
2022/05/18 04:00:41;;;;;;;7.28;2.17;;;;;;;-149.78;100.00;50277.81;5137904;27;20393;-73
2022/05/18 04:03:09;;;;;;;6.95;2.25;;;;;;;-149.78;100.00;50322.81;5119378;27;20045;-73
2022/05/18 04:05:37;;;;;;;10.25;2.70;;;;;;;-149.78;100.00;50256.31;5137577;27;20110;-73
2022/05/18 04:08:05;;;;;;;8.27;2.55;;;;;;;-149.78;100.00;50291.50;5119004;27;20514;-73
2022/05/18 04:10:31;;;;;;;7.22;2.45;;;;;;;-149.78;100.00;50307.16;5137173;27;20051;-73
2022/05/18 04:12:58;;;;;;;7.80;2.17;;;;;;;-149.78;100.00;50252.41;5118953;27;20042;-73
2022/05/18 04:15:24;;;;;;;9.52;3.15;;;;;;;-149.78;100.00;50297.38;5137526;27;20035;-73
2022/05/18 04:17:49;;;;;;;5.10;2.47;;;;;;;-149.78;100.00;50270.00;5137561;27;20034;-73
2022/05/18 04:20:18;;;;;;;11.90;2.88;;;;;;;-149.78;100.00;50279.78;5102046;27;20042;-73
2022/05/18 04:22:45;;;;;;;13.13;2.85;;;;;;;-149.78;100.00;50314.97;5119075;27;20019;-73
2022/05/18 04:25:13;;;;;;;8.95;2.38;;;;;;;-149.78;100.00;50279.78;5137291;27;20031;-73
2022/05/18 04:27:39;;;;;;;9.68;2.80;;;;;;;-149.78;100.00;50268.03;5137108;27;20121;-73
2022/05/18 04:30:06;;;;;;;7.85;2.90;;;;;;;-149.78;100.00;50293.47;5101457;27;20126;-73
2022/05/18 04:32:32;;;;;;;11.45;2.80;;;;;;;-149.78;100.00;50264.13;5118587;27;20081;-73
2022/05/18 04:34:58;;;;;;;7.60;2.40;;;;;;;-149.78;100.00;50287.59;5136915;27;20069;-74
2022/05/18 04:37:23;;;;;;;7.38;2.50;;;;;;;-149.78;100.00;50244.59;5117277;27;20043;-73
2022/05/18 04:39:49;;;;;;;6.57;2.60;;;;;;;-149.78;100.00;50268.03;5085030;27;20125;-73
2022/05/18 04:42:16;;;;;;;6.95;2.58;;;;;;;-149.78;100.00;50258.28;5101835;27;20114;-73
2022/05/18 04:44:42;;;;;;;8.40;2.53;;;;;;;-149.78;100.00;50264.13;5136605;27;20035;-73
2022/05/18 04:47:07;;;;;;;11.77;2.70;;;;;;;-149.78;100.00;50252.41;5137019;27;20071;-73
2022/05/18 04:49:33;;;;;;;13.68;2.63;;;;;;;-149.78;100.00;50297.38;5136612;27;20065;-73
2022/05/18 04:52:01;;;;;;;13.82;3.17;;;;;;;-149.78;100.00;50275.88;5118280;27;20046;-73
2022/05/18 04:54:27;;;;;;;10.45;2.88;;;;;;;-149.78;100.00;50242.63;5118221;27;20043;-73
2022/05/18 04:56:54;;;;;;;17.80;3.35;;;;;;;-149.78;100.00;50279.78;5101515;27;20027;-74
2022/05/18 04:59:20;;;;;;;8.57;2.70;;;;;;;-149.78;100.00;50295.44;5118787;27;20164;-73
2022/05/18 05:01:46;;;;;;;9.85;2.70;;;;;;;-149.78;100.00;50262.19;5118305;27;20110;-74
2022/05/18 05:04:13;;;;;;;12.60;3.60;;;;;;;-149.78;100.00;50271.97;5101271;27;20493;-73
2022/05/18 05:06:40;;;;;;;11.32;2.90;;;;;;;-149.78;100.00;50240.66;5117647;27;20103;-73
2022/05/18 05:09:07;;;;;;;15.30;3.10;;;;;;;-149.78;100.00;50303.25;5136297;27;20187;-73
2022/05/18 05:11:33;;;;;;;9.00;2.45;;;;;;;-149.78;100.00;50291.50;5117839;27;20472;-73
2022/05/18 05:13:59;;;;;;;9.63;2.83;;;;;;;-149.78;100.00;50287.59;5136225;27;20072;-74
2022/05/18 05:16:28;;;;;;;7.50;2.45;;;;;;;-149.78;100.00;50279.78;5136227;27;20160;-74
2022/05/18 05:18:53;;;;;;;7.10;2.50;;;;;;;-149.78;100.00;50260.22;5118228;27;20126;-73
2022/05/18 05:21:18;;;;;;;17.95;3.20;;;;;;;-149.78;100.00;50232.84;5135890;27;20108;-74
2022/05/18 05:23:46;;;;;;;8.50;2.90;;;;;;;-149.78;100.00;50291.50;5117746;27;20560;-74
2022/05/18 05:26:13;;;;;;;9.27;2.60;;;;;;;-149.78;100.00;50270.00;5084471;27;20057;-74
2022/05/18 05:28:39;;;;;;;10.85;2.70;;;;;;;-149.78;100.00;50256.31;5117724;27;20035;-74
2022/05/18 05:31:07;;;;;;;11.88;2.60;;;;;;;-149.78;100.00;50283.69;5105733;28;20031;-74
2022/05/18 05:33:34;;;;;;;11.07;3.22;;;;;;;-149.78;100.00;50270.00;5115264;28;20096;-74
2022/05/18 05:36:00;;;;;;;9.27;2.33;;;;;;;-149.78;100.00;50244.59;5123210;27;20482;-74
2022/05/18 05:38:27;;;;;;;8.50;2.30;;;;;;;-149.78;100.00;50256.31;5100005;27;20554;-74
2022/05/18 05:40:54;;;;;;;8.70;3.63;;;;;;;-149.78;100.00;50238.72;5102623;27;20028;-74
2022/05/18 05:43:19;;;;;;;7.10;2.45;;;;;;;-149.78;100.00;50293.47;5121701;27;20019;-74
2022/05/18 05:46:05;;;;;;;9.05;2.92;;;;;;;-149.78;100.00;50279.78;5089891;27;20190;-74
2022/05/18 05:48:33;;;;;;;10.13;3.00;;;;;;;-149.78;100.00;50277.81;5117026;27;20045;-74
2022/05/18 05:51:00;;;;;;;10.00;2.75;;;;;;;-149.78;100.00;50275.88;5128024;27;20555;-74
2022/05/18 05:53:27;;;;;;;10.65;2.60;;;;;;;-149.78;100.00;50268.03;5099158;27;20080;-74
2022/05/18 05:55:53;;;;;;;6.45;2.95;;;;;;;-149.78;100.00;50256.31;5120135;27;20040;-74
2022/05/18 05:58:23;;;;;;;7.68;2.88;;;;;;;-149.78;100.00;50232.84;5106122;27;20051;-74
2022/05/18 06:00:48;;;;;;;5.03;2.72;;;;;;;-149.78;100.00;50240.66;5101683;28;20035;-74
2022/05/18 06:03:15;;;;;;;7.63;2.63;;;;;;;-149.78;100.00;50215.25;5084482;27;20047;-72
2022/05/18 06:05:41;;;;;;;8.20;2.72;;;;;;;-149.78;100.00;50240.66;5095990;27;20126;-72
2022/05/18 06:08:07;;;;;;;6.03;2.53;;;;;;;-149.78;100.00;50217.19;5101188;27;20130;-74
2022/05/18 06:10:34;;;;;;;11.35;3.17;;;;;;;-149.78;100.00;50256.31;5103524;27;20088;-73
2022/05/18 06:13:05;;;;;;;7.68;2.50;;;;;;;-149.78;100.00;50248.50;5105361;27;20043;-74
2022/05/18 06:15:30;;;;;;;8.40;2.95;;;;;;;-149.78;100.00;50258.28;5114750;27;20062;-73
2022/05/18 06:17:56;;;;;;;6.82;2.85;;;;;;;-149.78;100.00;50240.66;5115930;27;20430;-73
2022/05/18 06:20:21;;;;;;;13.05;3.38;;;;;;;-149.78;100.00;50217.19;5116539;27;20096;-74
2022/05/18 06:22:47;;;;;;;9.23;2.95;;;;;;;-149.78;100.00;50236.75;5100696;28;20457;-74
2022/05/18 06:25:15;;;;;;;7.78;3.22;;;;;;;-149.78;100.00;50252.41;5098300;28;20027;-71
2022/05/18 06:27:42;;;;;;;12.45;2.80;;;;;;;-149.78;100.00;50197.66;5103835;27;20065;-72
2022/05/18 06:30:09;;;;;;;8.00;2.78;;;;;;;-149.78;100.00;50217.19;5093815;28;20039;-73
2022/05/18 06:32:35;;;;;;;10.48;2.42;;;;;;;-149.78;100.00;50217.19;5112475;28;20502;-73
2022/05/18 06:35:01;;;;;;;6.30;2.42;;;;;;;-149.78;100.00;50189.81;5112446;28;20070;-72
2022/05/18 06:37:26;;;;;;;8.60;2.30;;;;;;;-149.78;100.00;50152.66;5101145;28;20063;-73
2022/05/18 06:39:52;;;;;;;9.05;2.50;;;;;;;-149.78;100.00;50154.63;5077767;28;20032;-73
2022/05/18 06:42:18;;;;;;;6.75;2.50;;;;;;;-149.78;100.00;50123.34;5094299;28;20387;-73
2022/05/18 06:44:44;;;;;;;8.00;2.40;;;;;;;-149.78;100.00;50103.78;5094218;28;20513;-72
2022/05/18 06:47:10;;;;;;;6.78;2.55;;;;;;;-149.78;100.00;50107.69;5113577;28;20040;-73
2022/05/18 06:49:36;;;;;;;8.38;2.45;;;;;;;-149.78;100.00;50092.03;5095304;28;20126;-73
2022/05/18 06:52:02;;;;;;;6.32;2.25;;;;;;;-149.78;100.00;50078.34;5113067;28;20118;-73
2022/05/18 06:54:28;;;;;;;7.05;2.15;;;;;;;-149.78;100.00;50035.34;5113178;28;20039;-74
2022/05/18 06:56:54;;;;;;;7.40;2.20;;;;;;;-149.78;100.00;50054.88;5113361;28;20459;-74
2022/05/18 06:59:19;;;;;;;11.18;2.75;;;;;;;-149.78;100.00;50021.63;5094979;28;20036;-74
2022/05/18 07:01:45;;;;;;;10.40;2.95;;;;;;;-149.78;100.00;50006.00;5113143;28;20080;-74
2022/05/18 07:04:11;;;;;;;6.45;1.98;;;;;;;-149.78;100.00;50000.13;5113533;28;20032;-75
2022/05/18 07:06:40;;;;;;;5.88;2.00;;;;;;;-149.78;100.00;49990.34;5096608;28;20115;-74
2022/05/18 07:09:10;;;;;;;6.43;1.98;;;;;;;-149.78;100.00;49982.53;5123970;28;20023;-74
2022/05/18 07:11:36;;;;;;;8.05;2.08;;;;;;;-149.78;100.00;49959.06;5115592;28;20118;-75
2022/05/18 07:14:05;;;;;;;6.78;1.90;;;;;;;-149.78;100.00;49947.34;5126703;28;20031;-73
2022/05/18 07:16:32;;;;;;;8.20;1.90;;;;;;;-149.78;100.00;50002.09;5128861;28;20051;-74
2022/05/18 07:18:58;;;;;;;6.40;1.95;;;;;;;-149.78;100.00;49990.34;5121832;28;20381;-74
2022/05/18 07:21:25;;;;;;;5.22;2.08;;;;;;;-149.78;93.76;49916.03;5095172;28;20115;-74
2022/05/18 07:23:53;;;;;;;9.10;2.35;;;;;;;-149.78;90.95;49982.53;5102450;28;20394;-74
2022/05/18 07:26:21;;;;;;;6.45;2.08;;;;;;;-149.78;88.25;49959.06;5099845;28;20027;-73
2022/05/18 07:28:47;;;;;;;10.38;1.92;;;;;;;-149.78;79.64;49935.59;5102153;28;20486;-74
2022/05/18 07:31:14;;;;;;;6.18;1.98;;;;;;;-149.78;74.12;49906.25;5116753;28;20065;-73
2022/05/18 07:33:39;;;;;;;4.25;1.80;;;;;;;-149.78;68.43;49923.88;5120666;28;20218;-73
2022/05/18 07:36:06;;;;;;;6.35;1.85;;;;;;;-149.78;60.55;49865.19;5121790;28;20502;-73
2022/05/18 07:38:33;;;;;;;4.95;1.70;;;;;;;-149.78;64.81;49919.94;5133558;28;20059;-73
2022/05/18 07:41:00;;;;;;;11.60;2.20;;;;;;;-149.78;61.42;49888.66;5115122;28;20036;-73
2022/05/18 07:43:26;;;;;;;7.45;1.95;;;;;;;-149.78;56.95;49947.34;5115276;28;20095;-73
2022/05/18 07:45:54;;;;;;;11.32;2.80;;;;;;;-149.78;52.96;49880.84;5133611;28;20114;-73
2022/05/18 07:48:21;;;;;;;8.88;1.88;;;;;;;-149.78;55.77;49939.50;5114996;28;20065;-73
2022/05/18 07:50:47;;;;;;;10.68;2.33;;;;;;;-149.78;53.74;49888.66;5133433;28;20035;-73
2022/05/18 07:53:13;;;;;;;8.25;2.13;;;;;;;-149.78;53.35;49890.63;5133586;28;20027;-73
2022/05/18 07:55:39;;;;;;;8.13;2.10;;;;;;;-149.78;57.47;49919.94;5095068;28;20055;-73
2022/05/18 07:58:07;;;;;;;6.40;2.00;;;;;;;-149.78;49.39;49869.13;5091474;28;20036;-73
2022/05/18 08:00:34;;;;;;;9.35;2.70;;;;;;;-149.78;53.29;49894.53;5091454;28;20036;-73
2022/05/18 08:02:59;;;;;;;8.30;2.13;;;;;;;-149.78;49.17;49853.47;5091546;28;20039;-73
2022/05/18 08:05:25;;;;;;;5.60;2.00;;;;;;;-149.78;47.79;49853.47;5091609;28;20032;-73
2022/05/18 08:07:51;;;;;;;5.20;2.03;;;;;;;-149.78;46.94;49839.78;5091464;28;20097;-73
2022/05/18 08:15:49;;;;;;;6.95;1.67;;;;;;;-149.78;45.71;49912.13;5096467;28;20028;-73
2022/05/18 08:18:17;;;;;;;9.13;2.33;;;;;;;-149.78;50.61;49908.22;5096315;28;20067;-73
2022/05/18 08:20:43;;;;;;;7.60;1.80;;;;;;;-149.78;48.31;49918.00;5094873;28;20024;-72
2022/05/18 08:23:09;;;;;;;6.35;2.00;;;;;;;-149.78;47.40;49884.75;5095022;28;20134;-73
2022/05/18 08:25:36;;;;;;;8.48;2.35;;;;;;;-149.78;47.88;49861.28;5096152;28;20059;-73
2022/05/18 08:28:03;;;;;;;5.22;1.98;;;;;;;-149.78;47.35;49861.28;5094916;28;20156;-73
2022/05/18 08:30:30;;;;;;;5.18;1.88;;;;;;;-149.78;44.69;49810.44;5094737;28;20093;-72
2022/05/18 08:33:00;;;;;;;7.70;2.00;;;;;;;-149.78;45.33;49873.03;5095929;28;20082;-73
2022/05/18 08:35:27;;;;;;;7.72;2.40;;;;;;;-149.78;43.72;49841.72;5094700;28;20107;-73
2022/05/18 08:37:54;;;;;;;7.32;2.20;;;;;;;-149.78;43.88;49863.25;5094338;28;20036;-73
2022/05/18 08:40:29;;;;;;;3.97;1.73;;;;;;;-149.78;39.82;49843.69;5095895;28;20084;-73
2022/05/18 08:42:56;;;;;;;4.97;1.75;;;;;;;-149.78;40.18;49814.34;5095767;28;20452;-73
2022/05/18 08:45:26;;;;;;;8.63;2.40;;;;;;;-149.78;37.98;49790.91;5094486;28;20157;-73
2022/05/18 08:48:03;;;;;;;8.10;1.92;;;;;;;-149.78;35.83;49783.06;5095703;28;20040;-73
2022/05/18 08:50:30;;;;;;;5.93;1.75;;;;;;;-149.78;37.02;49786.97;5094532;28;20041;-72
2022/05/18 08:52:59;;;;;;;6.10;2.20;;;;;;;-149.78;36.77;49794.81;5077479;28;20047;-72
2022/05/18 08:56:01;;;;;;;8.27;2.10;;;;;;;-149.78;37.15;49792.84;5124377;27;20055;-72
2022/05/18 08:58:38;;;;;;;6.38;1.88;;;;;;;-149.78;39.19;49804.59;5136570;27;20039;-72
2022/05/18 09:01:28;;;;;;;8.05;1.75;;;;;;;-149.78;38.46;49810.44;5117983;27;20027;-72
2022/05/18 09:04:03;;;;;;;6.13;1.90;;;;;;;-149.78;43.45;49904.31;5117844;27;20062;-72
2022/05/18 09:06:35;;;;;;;5.47;1.90;;;;;;;-149.78;41.75;49880.84;5136302;27;20034;-72
2022/05/18 09:11:57;;;;;;;7.22;2.13;;;;;;;-149.78;43.67;49888.66;5135943;27;20062;-72
2022/05/18 09:14:27;;;;;;;7.70;2.22;;;;;;;-149.78;42.56;49900.41;5136322;27;20035;-72
2022/05/18 09:17:18;;;;;;;9.05;2.58;;;;;;;-149.78;46.08;49916.03;5117662;27;20043;-71
2022/05/18 09:20:12;;;;;;;8.45;3.00;;;;;;;-149.78;43.71;49951.25;5135936;27;20041;-72
2022/05/18 09:22:40;;;;;;;7.25;2.40;;;;;;;-149.78;50.09;49974.72;5135199;27;20027;-72
2022/05/18 09:25:18;;;;;;;9.20;2.40;;;;;;;-149.78;52.30;49980.56;5117606;27;20058;-72
2022/05/18 09:28:00;;;;;;;6.97;1.85;;;;;;;-149.78;53.45;49974.72;5100315;27;20055;-72
2022/05/18 09:30:39;;;;;;;7.38;2.00;;;;;;;-149.78;49.67;49982.53;5135736;27;20111;-72
2022/05/18 09:33:20;;;;;;;7.22;2.40;;;;;;;-149.78;48.04;49929.72;5117380;27;20038;-72
2022/05/18 09:36:07;;;;;;;4.15;1.90;;;;;;;-149.78;45.92;49968.84;5117401;27;20113;-72
2022/05/18 09:38:35;;;;;;;8.93;2.00;;;;;;;-149.78;44.47;49931.69;5117327;27;20031;-73
2022/05/18 09:41:06;;;;;;;7.53;2.20;;;;;;;-149.78;42.58;49900.41;5117141;27;20071;-73
2022/05/18 09:43:34;;;;;;;7.80;2.37;;;;;;;-149.78;42.16;49908.22;5117254;27;20030;-73
2022/05/18 09:46:00;;;;;;;5.40;2.20;;;;;;;-149.78;41.15;49849.56;5117345;27;20038;-73
2022/05/18 09:48:37;;;;;;;5.93;2.05;;;;;;;-149.78;42.90;49927.78;5117213;27;20035;-73
2022/05/18 09:51:05;;;;;;;4.85;1.85;;;;;;;-149.78;40.79;49888.66;5135343;27;20035;-73
2022/05/18 09:53:31;;;;;;;4.65;1.88;;;;;;;-149.78;42.06;49892.56;5117083;27;20031;-73
2022/05/18 09:55:57;;;;;;;7.07;2.10;;;;;;;-149.78;44.86;49919.94;5135280;27;20112;-74
2022/05/18 09:58:26;;;;;;;8.23;2.10;;;;;;;-149.78;43.29;49919.94;5117160;27;20417;-74
2022/05/18 10:07:27;;;;;;;7.85;2.25;;;;;;;-149.78;44.13;49902.34;5135195;27;20037;-74
2022/05/18 10:09:43;;;;;;;6.70;2.10;;;;;;;-149.78;43.15;49908.22;5134788;27;20027;-74
2022/05/18 10:12:26;;;;;;;10.00;2.25;;;;;;;-149.78;46.42;49912.13;5116411;27;20028;-73
2022/05/18 10:15:09;;;;;;;7.80;2.33;;;;;;;-149.78;41.87;49902.34;5116529;27;20431;-73
2022/05/18 10:17:38;;;;;;;5.50;2.10;;;;;;;-149.78;44.34;49886.72;5116445;27;20031;-74
2022/05/18 10:20:11;;;;;;;8.25;2.20;;;;;;;-149.78;44.46;49957.09;5134723;27;20050;-74
2022/05/18 10:22:44;;;;;;;6.45;1.90;;;;;;;-149.78;43.04;49931.69;5116404;27;20023;-73
2022/05/18 10:25:21;;;;;;;7.43;2.42;;;;;;;-149.78;42.08;49916.03;5134736;27;20377;-73
2022/05/18 10:27:48;;;;;;;6.22;1.90;;;;;;;-149.78;44.15;49959.06;5134573;27;20027;-74
2022/05/18 10:30:28;;;;;;;8.25;1.90;;;;;;;-149.78;46.60;49959.06;5116596;27;20038;-74
2022/05/18 10:33:20;;;;;;;5.43;2.05;;;;;;;-149.78;52.72;49994.25;5134555;27;20055;-74
2022/05/18 10:35:51;;;;;;;6.22;2.10;;;;;;;-149.78;47.58;49974.72;5133678;27;20027;-73
2022/05/18 10:38:26;;;;;;;5.72;1.70;;;;;;;-149.78;44.65;50007.94;5134479;27;20126;-74
2022/05/18 10:40:55;;;;;;;2.97;1.77;;;;;;;-149.78;43.21;49974.72;5115917;27;20550;-74
2022/05/18 10:43:33;;;;;;;5.88;1.95;;;;;;;-149.78;45.25;49998.19;5115973;27;20038;-74
2022/05/18 10:46:09;;;;;;;5.93;1.98;;;;;;;-149.78;47.68;49961.03;5115936;27;20256;-73
2022/05/18 10:48:35;;;;;;;3.90;1.90;;;;;;;-149.78;45.60;49990.34;5134385;27;20035;-74
2022/05/18 10:51:11;;;;;;;5.55;2.00;;;;;;;-149.78;46.93;49990.34;5134211;27;20046;-74
2022/05/18 10:53:43;;;;;;;7.38;3.00;;;;;;;-149.78;49.98;49970.78;5115949;27;20027;-73
2022/05/18 10:56:31;;;;;;;5.85;2.20;;;;;;;-149.78;49.67;49982.53;5112626;28;20091;-74
2022/05/18 10:59:36;;;;;;;6.72;2.28;;;;;;;-149.78;53.46;50009.91;5112628;28;20565;-73
2022/05/18 11:02:17;;;;;;;8.43;2.60;;;;;;;-149.78;54.44;50019.69;5112560;28;20023;-74
2022/05/18 11:04:59;;;;;;;10.75;2.40;;;;;;;-149.78;53.60;49984.50;5112423;28;20028;-74
2022/05/18 11:07:26;;;;;;;;;;;;;;;-149.78;56.61;49990.34;5114145;28;20032;-73
2022/05/18 11:09:52;;;;;;;7.80;2.40;;;;;;;-149.78;53.99;50009.91;5112311;28;19923;-74
2022/05/18 11:12:32;;;;;;;7.70;2.28;;;;;;;-149.78;54.09;49982.53;5112215;28;20028;-73
2022/05/18 11:15:02;;;;;;;9.38;2.40;;;;;;;-149.78;52.59;50049.03;5113359;28;20032;-73
2022/05/18 11:17:55;;;;;;;5.60;2.78;;;;;;;-149.78;54.14;49998.19;5113269;28;20520;-73
2022/05/18 11:20:47;;;;;;;10.45;3.17;;;;;;;-149.78;54.08;49982.53;5112391;28;20036;-73
2022/05/18 11:23:15;;;;;;;6.40;2.47;;;;;;;-149.78;51.92;49974.72;5087376;28;20056;-73
2022/05/18 11:25:44;;;;;;;9.82;3.03;;;;;;;-149.78;47.94;49998.19;5092975;28;20494;-74
2022/05/18 11:28:47;;;;;;;9.55;2.80;;;;;;;-149.78;52.39;50011.88;5091999;28;20039;-74
2022/05/18 11:31:15;;;;;;;9.77;2.97;;;;;;;-149.78;51.71;50027.50;5093190;28;20059;-73
2022/05/18 11:34:15;;;;;;;7.82;3.00;;;;;;;-149.78;52.97;50002.09;5091707;28;20039;-73
2022/05/18 11:37:21;;;;;;;7.68;2.85;;;;;;;-149.78;54.21;49998.19;5105138;28;20359;-73
2022/05/18 11:40:15;;;;;;;8.20;3.28;;;;;;;-149.78;53.23;49994.25;5072714;28;20055;-73